• Join FlightAware (Why Join?)
  • Login
  • US Flag 
04:56AM EDT


 

Airport Tracker/Info


-or-


 

Live Flight TrackerFlight Track Log ✈ TAM3545 ✈ 11-May-2013 ✈ SBBE / BEL - SBGR / GRU

Flight Track Log - Related Links

Times and Time Zones

All times are in EDT time to prevent confusion due to time zone crossing. See the TAM3545 flight status page for this flight to view local times or setup timezone preferences in your user account.

Time Position Orientation Groundspeed Altitude Reporting Facility
EDT Latitude Longitude Course Direction KTS MPH feet Rate Location/Type
01:57AM -3.8040 -48.2684 175° South  Level Estimated
01:58AM -3.9195 -48.2585 175° South  Level Estimated
01:59AM -4.0349 -48.2486 175° South  Level Estimated
02:00AM -4.1504 -48.2386 175° South  Level Estimated
02:01AM -4.2659 -48.2287 175° South  Level Estimated
02:02AM -4.3813 -48.2188 175° South  Level Estimated
02:03AM -4.4968 -48.2088 175° South  Level Estimated
02:04AM -4.6122 -48.1989 175° South  Level Estimated
02:05AM -4.7277 -48.1889 175° South  Level Estimated
02:06AM -4.8432 -48.1790 175° South  Level Estimated
02:07AM -4.9586 -48.1690 175° South  Level Estimated
02:08AM -5.0741 -48.1591 175° South  Level Estimated
02:09AM -5.1895 -48.1491 175° South  Level Estimated
02:10AM -5.3050 -48.1392 175° South  Level Estimated
02:11AM -5.4205 -48.1292 175° South  Level Estimated
02:12AM -5.5359 -48.1192 175° South  Level Estimated
02:13AM -5.6514 -48.1093 175° South  Level Estimated
02:14AM -5.7668 -48.0993 175° South  Level Estimated
02:15AM -5.8823 -48.0893 175° South  Level Estimated
02:16AM -5.9978 -48.0793 175° South  Level Estimated
02:17AM -6.1132 -48.0693 175° South  Level Estimated
02:18AM -6.2287 -48.0593 175° South  Level Estimated
02:19AM -6.3442 -48.0494 175° South  Level Estimated
02:20AM -6.4596 -48.0393 175° South  Level Estimated
02:21AM -6.5751 -48.0293 175° South  Level Estimated
02:22AM -6.6905 -48.0193 175° South  Level Estimated
02:23AM -6.8060 -48.0093 175° South  Level Estimated
02:24AM -6.9215 -47.9993 175° South  Level Estimated
02:25AM -7.0369 -47.9893 175° South  Level Estimated
02:26AM -7.1524 -47.9792 175° South  Level Estimated
02:27AM -7.2678 -47.9692 175° South  Level Estimated
02:28AM -7.3833 -47.9591 175° South  Level Estimated
02:29AM -7.4988 -47.9491 175° South  Level Estimated
02:30AM -7.6142 -47.9390 175° South  Level Estimated
02:31AM -7.7297 -47.9290 175° South  Level Estimated
02:32AM -7.8451 -47.9189 175° South  Level Estimated
02:33AM -7.9606 -47.9089 175° South  Level Estimated
02:33AM -8.1380 -48.3820 175° South 450 518 37,000  Level FlightAware
02:34AM -8.0760 -47.8988 175° South  Level Estimated
02:34AM -8.2350 -48.3820 180° South 448 516 37,000  Level FlightAware
02:35AM -8.3730 -48.3840 181° South 448 516 37,000  Level FlightAware
02:36AM -8.4930 -48.3830 180° South 450 518 37,000  Level FlightAware
02:37AM -8.5750 -48.3820 179° South 451 519 37,000  Level FlightAware
02:37AM -8.6700 -48.3800 179° South 454 522 37,000  Level FlightAware
02:38AM -8.7530 -48.3790 179° South 456 525 37,000  Level FlightAware
02:39AM -8.8640 -48.3780 179° South 456 525 37,000  Level FlightAware
02:41AM -9.0538 -48.3547 173° South  Level Estimated
02:41AM -9.0930 -48.3750 173° South 456 525 37,000  Level FlightAware
02:41AM -9.1930 -48.3730 179° South 456 525 37,000  Level FlightAware
02:42AM -9.2820 -48.3720 179° South 456 525 37,000  Level FlightAware
02:43AM -9.3650 -48.3710 179° South 456 525 37,000  Level FlightAware
02:44AM -9.4620 -48.3700 179° South 458 527 37,000  Level FlightAware
02:44AM -9.5440 -48.3680 179° South 458 527 37,000  Level FlightAware
02:45AM -9.6980 -48.3660 179° South 458 527 37,000  Level FlightAware
02:46AM -9.7810 -48.3650 179° South 458 527 37,000  Level FlightAware
02:47AM -9.8710 -48.3640 179° South 457 526 37,000  Level FlightAware
02:48AM -9.9660 -48.3630 179° South 457 526 37,000  Level FlightAware
02:48AM -10.0380 -48.3610 178° South 457 526 37,000  Level FlightAware
02:49AM -10.1100 -48.3600 179° South 457 526 37,000  Level FlightAware
02:52AM -10.4145 -48.3194 173° South  Level Estimated
02:53AM -10.5294 -48.3040 173° South  Level Estimated
02:54AM -10.6443 -48.2886 173° South  Level Estimated
02:55AM -10.7592 -48.2732 173° South  Level Estimated
02:56AM -10.8741 -48.2578 173° South  Level Estimated
02:57AM -10.9890 -48.2424 173° South  Level Estimated
02:57AM -11.1130 -48.3090 173° South 458 527 37,000  Level FlightAware
02:57AM -11.2100 -48.3040 177° South 458 527 37,000  Level FlightAware
02:58AM -11.3180 -48.2970 176° South 458 527 37,000  Level FlightAware
03:00AM -11.5120 -48.2850 177° South 458 527 37,000  Level FlightAware
03:00AM -11.5830 -48.2800 176° South 458 527 37,000  Level FlightAware
03:01AM -11.6550 -48.2750 176° South 458 527 37,000  Level FlightAware
03:03AM -11.9550 -48.2590 177° South 459 528 37,000  Level FlightAware
03:04AM -12.0470 -48.2540 177° South 457 526 37,000  Level FlightAware
03:05AM -12.1360 -48.2480 176° South 455 524 37,000  Level FlightAware
03:05AM -12.2290 -48.2430 177° South 454 522 37,000  Level FlightAware
03:06AM -12.3150 -48.2380 177° South 452 520 37,000  Level FlightAware
03:07AM -12.4050 -48.2320 176° South 451 519 37,000  Level FlightAware
03:08AM -12.5230 -48.2250 177° South 449 517 37,000  Level FlightAware
03:08AM -12.5930 -48.2200 176° South 449 517 37,000  Level FlightAware
03:09AM -12.6810 -48.2140 176° South 449 517 37,000  Level FlightAware
03:10AM -12.7520 -48.2090 176° South 449 517 37,000  Level FlightAware
03:10AM -12.8220 -48.2040 176° South 449 517 37,000  Level FlightAware
03:11AM -12.8920 -48.1990 176° South 449 517 37,000  Level FlightAware
03:12AM -12.9630 -48.1940 176° South 449 517 37,000  Level FlightAware
03:13AM -13.0510 -48.1880 176° South 449 517 37,000  Level FlightAware
03:13AM -13.1210 -48.1830 176° South 449 517 37,000 -60 Level FlightAware
03:16AM -13.3845 -48.1415 171° South  Level Estimated
03:17AM -13.4990 -48.1234 171° South  Level Estimated
03:18AM -13.6136 -48.1054 171° South  Level Estimated
03:19AM -13.7281 -48.0873 171° South  Level Estimated
03:20AM -13.8427 -48.0691 171° South  Level Estimated
03:21AM -13.9572 -48.0510 171° South  Level Estimated
03:22AM -14.0717 -48.0328 171° South  Level Estimated
03:23AM -14.1863 -48.0147 171° South  Level Estimated
03:24AM -14.3008 -47.9965 171° South  Level Estimated
03:25AM -14.4154 -47.9783 171° South  Level Estimated
03:26AM -14.5299 -47.9600 171° South  Level Estimated
03:27AM -14.6444 -47.9418 171° South  Level Estimated
03:28AM -14.7590 -47.9235 171° South  Level Estimated
03:29AM -14.8735 -47.9052 171° South  Level Estimated
03:30AM -14.9880 -47.8869 171° South  Level Estimated
03:31AM -15.1025 -47.8686 171° South  Level Estimated
03:32AM -15.2171 -47.8502 171° South  Level Estimated
03:33AM -15.3316 -47.8319 171° South  Level Estimated
03:34AM -15.4461 -47.8135 171° South  Level Estimated
03:35AM -15.5606 -47.7951 171° South  Level Estimated
03:36AM -15.6752 -47.7766 171° South  Level Estimated
03:37AM -15.7897 -47.7582 171° South  Level Estimated
03:38AM -15.9042 -47.7397 171° South  Level Estimated
03:39AM -16.0187 -47.7212 171° South  Level Estimated
03:40AM -16.1332 -47.7027 171° South  Level Estimated
03:41AM -16.2478 -47.6842 171° South  Level Estimated
03:42AM -16.3623 -47.6656 171° South  Level Estimated
03:43AM -16.4768 -47.6471 171° South  Level Estimated
03:44AM -16.5913 -47.6285 171° South  Level Estimated
03:45AM -16.7058 -47.6099 171° South  Level Estimated
03:46AM -16.8203 -47.5912 171° South  Level Estimated
03:47AM -16.9348 -47.5726 171° South  Level Estimated
03:48AM -17.0493 -47.5539 171° South  Level Estimated
03:49AM -17.1638 -47.5351 171° South  Level Estimated
03:50AM -17.2783 -47.5164 171° South  Level Estimated
03:51AM -17.3928 -47.4977 171° South  Level Estimated
03:52AM -17.5073 -47.4789 171° South  Level Estimated
03:53AM -17.6218 -47.4601 171° South  Level Estimated
03:54AM -17.7363 -47.4412 171° South  Level Estimated
03:55AM -17.8508 -47.4224 171° South  Level Estimated
03:56AM -17.9653 -47.4035 171° South  Level Estimated
03:57AM -18.0798 -47.3846 171° South  Level Estimated
03:58AM -18.1942 -47.3657 171° South  Level Estimated
03:59AM -18.3087 -47.3467 171° South  Level Estimated
04:00AM -18.4232 -47.3278 171° South  Level Estimated
04:01AM -18.5377 -47.3088 171° South  Level Estimated
04:02AM -18.6522 -47.2897 171° South  Level Estimated
04:03AM -18.7666 -47.2707 171° South  Level Estimated
04:04AM -18.8811 -47.2516 171° South  Level Estimated
04:05AM -18.9956 -47.2325 171° South  Level Estimated
04:06AM -19.1101 -47.2134 171° South  Level Estimated
04:07AM -19.2245 -47.1942 171° South  Level Estimated
04:08AM -19.3390 -47.1750 171° South  Level Estimated
04:09AM -19.4534 -47.1558 171° South  Level Estimated
04:10AM -19.5679 -47.1366 171° South  Level Estimated
04:11AM -19.6824 -47.1173 171° South  Level Estimated
04:12AM -19.7968 -47.0980 171° South  Level Estimated
04:13AM -19.9113 -47.0787 171° South  Level Estimated
04:14AM -20.0257 -47.0594 171° South  Level Estimated
04:15AM -20.1402 -47.0400 171° South  Level Estimated
04:16AM -20.2546 -47.0206 171° South  Level Estimated
04:17AM -20.3691 -47.0012 171° South  Level Estimated
04:18AM -20.4835 -46.9817 171° South  Level Estimated
04:19AM -20.5980 -46.9622 171° South  Level Estimated
04:19AM -21.1180 -47.4130 171° South 417 480 36,000  Level FlightAware
04:20AM -20.7124 -46.9427 171° South  Level Estimated
04:20AM -21.1980 -47.4050 175° South 417 480 36,000  Level FlightAware
04:21AM -21.3080 -47.3980 177° South 418 481 36,000  Level FlightAware
04:22AM -21.3830 -47.3920 176° South 419 482 36,000  Level FlightAware
04:22AM -21.4630 -47.3860 176° South 419 482 36,000  Level FlightAware
04:23AM -21.5490 -47.3790 176° South 418 481 36,000  Level FlightAware
04:24AM -21.6280 -47.3730 176° South 418 481 36,000  Level FlightAware
04:24AM -21.7050 -47.3660 175° South 419 482 36,000  Level FlightAware
04:25AM -21.7730 -47.3610 176° South 420 483 36,000 -900 Level FlightAware
04:26AM -21.8710 -47.3530 176° South 418 481 34,800 -1,740 Descending FlightAware
04:27AM -21.9570 -47.3470 176° South 407 468 33,300 -2,160 Descending FlightAware
04:27AM -22.0290 -47.3260 165° South 402 463 31,800 -2,220 Descending FlightAware
04:28AM -22.1110 -47.2920 159° South 396 456 30,200 -2,220 Descending FlightAware
04:29AM -22.1800 -47.2640 159° South 398 458 28,700 -2,160 Descending FlightAware
04:29AM -22.2380 -47.2400 159° South 394 453 27,500 -2,040 Descending FlightAware
04:31AM -22.4250 -47.1620 159° South 368 423 23,600 -2,040 Descending FlightAware
04:32AM -22.5450 -47.1110 159° South 364 419 21,200 -1,980 Descending FlightAware
04:33AM -22.6080 -47.0840 158° South 360 414 19,900 -1,800 Descending FlightAware
04:34AM -22.6710 -47.0580 159° South 348 400 18,800 -1,740 Descending FlightAware
04:34AM -22.7370 -47.0300 159° South 343 395 17,500 -1,740 Descending FlightAware
04:35AM -22.8010 -47.0040 159° South 348 400 16,400 -1,740 Descending FlightAware
04:36AM -22.8690 -46.9750 159° South 345 397 15,100 -1,740 Descending FlightAware
04:37AM -22.9270 -46.9510 159° South 332 382 14,000 -1,740 Descending FlightAware
04:37AM -22.9930 -46.9230 159° South 332 382 12,700 -1,740 Descending FlightAware
04:38AM -23.0510 -46.8990 159° South 329 379 11,600 -1,440 Descending FlightAware
04:39AM -23.1130 -46.8730 159° South 311 358 10,700 -1,200 Descending FlightAware
04:39AM -23.1660 -46.8500 158° South 297 342 9,900 -1,440 Descending FlightAware
04:40AM -23.1960 -46.8370 158° South 295 339 9,200 -1,200 Descending FlightAware
04:40AM -23.2350 -46.8210 159° South 277 319 8,800 -660 Descending FlightAware
04:41AM -23.2650 -46.8100 161° South 252 290 8,600 -600 Descending FlightAware
04:41AM -23.2970 -46.7990 162° South 237 273 8,300 -540 Descending FlightAware
04:42AM -23.3290 -46.7880 162° South 221 254 8,100 -540 Descending FlightAware
04:42AM -23.3590 -46.7790 165° South 218 251 7,800 -600 Descending FlightAware
04:42AM -23.3680 -46.7750 158° South 217 250 7,700 -840 Descending FlightAware
04:43AM -23.3870 -46.7690 164° South 207 238 7,400 -840 Descending FlightAware
04:43AM -23.4250 -46.7570 164° South 201 231 6,900 -780 Descending FlightAware
04:44AM -23.4410 -46.7470 150° Southeast 194 223 6,600 -660 Descending FlightAware
04:44AM -23.4640 -46.7290 144° Southeast 190 219 6,300 -780 Descending FlightAware
04:44AM -23.4700 -46.7210 129° Southeast 178 205 6,100 -780 Descending FlightAware
04:45AM -23.4800 -46.6960 114° Southeast 179 206 5,800 -720 Descending FlightAware
04:45AM -23.4860 -46.6690 104° East 182 209 5,400 -780 Descending FlightAware
04:46AM -23.4820 -46.6460 79° East 184 212 5,100 -900 Descending FlightAware
04:46AM -23.4750 -46.6200 74° East 176 203 4,600 -900 Descending FlightAware
04:47AM -23.4680 -46.5970 72° East 159 183 4,200 -780 Descending FlightAware
04:47AM -23.4630 -46.5780 74° East 148 170 3,900 -840 Descending FlightAware
04:48AM -23.4590 -46.5610 76° East 136 157 3,500 -780 Descending FlightAware
04:48AM -23.4530 -46.5410 72° East 134 154 3,200 -600 Descending FlightAware
04:49AM -23.4480 -46.5210 75° East 136 157 2,900 -720 Descending FlightAware
04:49AM -23.4430 -46.5020 74° East 136 157 2,500 -780 Descending FlightAware
04:50AM -23.4390 -46.4860 75° East 136 157 2,200 -720 Descending FlightAware